Margaret — WDC3267 — position and weather

sailwx.info

Track history (hours):
 
Tides and Currents Weather Stations Pressure Air Temp Water Temp Dewpoint Dewpoint Depression Visibility Wind Speed Wind Dir Waves Ship Positions

Margaret

Owner: Cooper Marine & Timberlands Corporation, Mobile, AL. More information available from US FCC via Universal Licensing System and Coast Guard Vessel Documentation Center.

Last reported at 2015-Jul-26 13:31 UTC. Time now 2015-Jul-28 10:26 UTC.
Position N 30°24' W 086°52'.

; draft 9 m.

Type: Towing. MMSI: 367004940.

Date/timePositionNaut miles runAvg speedWind from/ knotsBaromVisibWave heightAir tempDewpointWater temp
2015-Jul-26 13:31N 30°24' W 086°52'5 5.6
2015-Jul-26 12:33N 30°24' W 086°46'16 5.3
2015-Jul-26 09:33N 30°26' W 086°28'6 6.1
2015-Jul-26 08:34N 30°26' W 086°21'4 0.1
2015-Jul-25 04:28N 30°26' W 086°16'4 4.5
2015-Jul-25 03:34N 30°26' W 086°21'5 4.6
2015-Jul-25 02:33N 30°26' W 086°26'5 4.6
2015-Jul-25 01:34N 30°25' W 086°32'13 4.3
2015-Jul-24 22:33N 30°24' W 086°47'4 4.2
2015-Jul-24 21:32N 30°24' W 086°52'  
Track history (hours):
 
Tides and Currents Weather Stations Pressure Air Temp Water Temp Dewpoint Dewpoint Depression Visibility Wind Speed Wind Dir Waves Ship Positions

Margaret

Owner: Cooper Marine & Timberlands Corporation, Mobile, AL. More information available from US FCC via Universal Licensing System and Coast Guard Vessel Documentation Center.

Last reported at 2015-Jul-26 13:31 UTC. Time now 2015-Jul-28 10:26 UTC.
Position N 30°24' W 086°52'.

; draft 9 m.

Type: Towing. MMSI: 367004940.

Date/timePositionNaut miles runAvg speedWind from/ knotsBaromVisibWave heightAir tempDewpointWater temp
2015-Jul-26 13:31N 30°24' W 086°52'5 5.6
2015-Jul-26 12:33N 30°24' W 086°46'16 5.3
2015-Jul-26 09:33N 30°26' W 086°28'6 6.1
2015-Jul-26 08:34N 30°26' W 086°21'4 0.1
2015-Jul-25 04:28N 30°26' W 086°16'4 4.5
2015-Jul-25 03:34N 30°26' W 086°21'5 4.6
2015-Jul-25 02:33N 30°26' W 086°26'5 4.6
2015-Jul-25 01:34N 30°25' W 086°32'13 4.3
2015-Jul-24 22:33N 30°24' W 086°47'4 4.2
2015-Jul-24 21:32N 30°24' W 086°52'  

Dump ship's entire track history